sensor_id;sensor_type;location;lat;lon;timestamp;P1;durP1;ratioP1;P2;durP2;ratioP2
27505;SDS011;14939;43.596;1.320;2023-04-24T00:00:14;13.73;;;7.25;;
27505;SDS011;14939;43.596;1.320;2023-04-24T00:02:44;14.65;;;6.32;;
27505;SDS011;14939;43.596;1.320;2023-04-24T00:05:12;12.98;;;6.32;;
27505;SDS011;14939;43.596;1.320;2023-04-24T00:07:39;10.63;;;6.47;;
27505;SDS011;14939;43.596;1.320;2023-04-24T00:10:05;13.10;;;6.82;;
27505;SDS011;14939;43.596;1.320;2023-04-24T00:12:31;10.68;;;6.10;;
27505;SDS011;14939;43.596;1.320;2023-04-24T00:14:57;12.75;;;6.28;;
27505;SDS011;14939;43.596;1.320;2023-04-24T00:17:23;11.70;;;5.85;;
27505;SDS011;14939;43.596;1.320;2023-04-24T00:19:49;12.45;;;5.57;;
27505;SDS011;14939;43.596;1.320;2023-04-24T00:22:23;15.52;;;6.15;;
27505;SDS011;14939;43.596;1.320;2023-04-24T00:24:52;12.45;;;5.20;;
27505;SDS011;14939;43.596;1.320;2023-04-24T00:27:18;13.82;;;6.07;;
27505;SDS011;14939;43.596;1.320;2023-04-24T00:29:44;15.82;;;6.13;;
27505;SDS011;14939;43.596;1.320;2023-04-24T00:32:10;11.88;;;5.85;;
27505;SDS011;14939;43.596;1.320;2023-04-24T00:34:35;14.57;;;5.85;;
27505;SDS011;14939;43.596;1.320;2023-04-24T00:37:01;13.68;;;5.82;;
27505;SDS011;14939;43.596;1.320;2023-04-24T00:39:27;14.77;;;5.63;;
27505;SDS011;14939;43.596;1.320;2023-04-24T00:41:53;16.20;;;5.60;;
27505;SDS011;14939;43.596;1.320;2023-04-24T00:44:18;10.70;;;5.28;;
27505;SDS011;14939;43.596;1.320;2023-04-24T00:46:44;13.82;;;5.28;;
27505;SDS011;14939;43.596;1.320;2023-04-24T00:49:12;12.60;;;5.57;;
27505;SDS011;14939;43.596;1.320;2023-04-24T00:51:39;14.52;;;5.05;;
27505;SDS011;14939;43.596;1.320;2023-04-24T00:54:05;11.80;;;4.95;;
27505;SDS011;14939;43.596;1.320;2023-04-24T00:56:31;11.15;;;5.00;;
27505;SDS011;14939;43.596;1.320;2023-04-24T00:58:57;11.00;;;5.03;;
27505;SDS011;14939;43.596;1.320;2023-04-24T01:01:23;9.15;;;5.22;;
27505;SDS011;14939;43.596;1.320;2023-04-24T01:03:50;14.38;;;5.18;;
27505;SDS011;14939;43.596;1.320;2023-04-24T01:06:16;14.63;;;4.78;;
27505;SDS011;14939;43.596;1.320;2023-04-24T01:08:43;14.82;;;4.75;;
27505;SDS011;14939;43.596;1.320;2023-04-24T01:11:10;11.57;;;3.95;;
27505;SDS011;14939;43.596;1.320;2023-04-24T01:13:36;12.00;;;4.38;;
27505;SDS011;14939;43.596;1.320;2023-04-24T01:16:02;11.95;;;3.95;;
27505;SDS011;14939;43.596;1.320;2023-04-24T01:18:28;7.63;;;3.50;;
27505;SDS011;14939;43.596;1.320;2023-04-24T01:20:57;12.00;;;3.60;;
27505;SDS011;14939;43.596;1.320;2023-04-24T01:23:24;10.07;;;3.95;;
27505;SDS011;14939;43.596;1.320;2023-04-24T01:25:50;11.30;;;3.70;;
27505;SDS011;14939;43.596;1.320;2023-04-24T01:28:16;11.38;;;4.10;;
27505;SDS011;14939;43.596;1.320;2023-04-24T01:30:42;12.45;;;3.60;;
27505;SDS011;14939;43.596;1.320;2023-04-24T01:33:08;12.43;;;3.80;;
27505;SDS011;14939;43.596;1.320;2023-04-24T01:35:35;12.85;;;4.25;;
27505;SDS011;14939;43.596;1.320;2023-04-24T01:38:02;14.05;;;3.92;;
27505;SDS011;14939;43.596;1.320;2023-04-24T01:40:28;12.00;;;3.65;;
27505;SDS011;14939;43.596;1.320;2023-04-24T01:42:54;10.15;;;3.13;;
27505;SDS011;14939;43.596;1.320;2023-04-24T01:45:20;14.05;;;3.50;;
27505;SDS011;14939;43.596;1.320;2023-04-24T01:47:46;11.32;;;3.22;;
27505;SDS011;14939;43.596;1.320;2023-04-24T01:50:13;9.88;;;3.42;;
27505;SDS011;14939;43.596;1.320;2023-04-24T01:52:39;11.93;;;3.20;;
27505;SDS011;14939;43.596;1.320;2023-04-24T01:55:05;11.70;;;3.47;;
27505;SDS011;14939;43.596;1.320;2023-04-24T01:57:32;11.23;;;3.58;;
27505;SDS011;14939;43.596;1.320;2023-04-24T01:59:58;15.15;;;4.05;;
27505;SDS011;14939;43.596;1.320;2023-04-24T02:02:24;10.73;;;3.38;;
27505;SDS011;14939;43.596;1.320;2023-04-24T02:04:52;16.55;;;4.50;;
27505;SDS011;14939;43.596;1.320;2023-04-24T02:07:18;11.52;;;4.10;;
27505;SDS011;14939;43.596;1.320;2023-04-24T02:09:44;13.35;;;4.45;;
27505;SDS011;14939;43.596;1.320;2023-04-24T02:12:10;15.27;;;4.70;;
27505;SDS011;14939;43.596;1.320;2023-04-24T02:14:36;16.25;;;4.63;;
27505;SDS011;14939;43.596;1.320;2023-04-24T02:17:01;12.52;;;4.35;;
27505;SDS011;14939;43.596;1.320;2023-04-24T02:19:27;14.65;;;4.25;;
27505;SDS011;14939;43.596;1.320;2023-04-24T02:21:53;10.02;;;3.97;;
27505;SDS011;14939;43.596;1.320;2023-04-24T02:24:19;8.30;;;3.92;;
27505;SDS011;14939;43.596;1.320;2023-04-24T02:26:45;11.55;;;4.20;;
27505;SDS011;14939;43.596;1.320;2023-04-24T02:29:10;14.45;;;4.05;;
27505;SDS011;14939;43.596;1.320;2023-04-24T02:31:36;10.10;;;4.40;;
27505;SDS011;14939;43.596;1.320;2023-04-24T02:34:01;14.18;;;4.53;;
27505;SDS011;14939;43.596;1.320;2023-04-24T02:36:27;11.15;;;4.43;;
27505;SDS011;14939;43.596;1.320;2023-04-24T02:38:53;12.38;;;4.75;;
27505;SDS011;14939;43.596;1.320;2023-04-24T02:41:19;11.93;;;4.63;;
27505;SDS011;14939;43.596;1.320;2023-04-24T02:43:45;13.00;;;4.93;;
27505;SDS011;14939;43.596;1.320;2023-04-24T02:46:10;13.90;;;4.50;;
27505;SDS011;14939;43.596;1.320;2023-04-24T02:48:36;14.27;;;4.65;;
27505;SDS011;14939;43.596;1.320;2023-04-24T02:51:02;13.30;;;4.72;;
27505;SDS011;14939;43.596;1.320;2023-04-24T02:53:28;9.70;;;4.65;;
27505;SDS011;14939;43.596;1.320;2023-04-24T02:55:55;16.48;;;4.35;;
27505;SDS011;14939;43.596;1.320;2023-04-24T02:58:21;9.88;;;4.18;;
27505;SDS011;14939;43.596;1.320;2023-04-24T03:00:47;10.45;;;4.63;;
27505;SDS011;14939;43.596;1.320;2023-04-24T03:03:14;13.05;;;4.28;;
27505;SDS011;14939;43.596;1.320;2023-04-24T03:05:40;14.75;;;4.28;;
27505;SDS011;14939;43.596;1.320;2023-04-24T03:08:06;10.52;;;3.72;;
27505;SDS011;14939;43.596;1.320;2023-04-24T03:10:31;9.70;;;4.10;;
27505;SDS011;14939;43.596;1.320;2023-04-24T03:12:57;12.02;;;3.38;;
27505;SDS011;14939;43.596;1.320;2023-04-24T03:15:23;13.90;;;3.75;;
27505;SDS011;14939;43.596;1.320;2023-04-24T03:17:48;13.73;;;4.20;;
27505;SDS011;14939;43.596;1.320;2023-04-24T03:20:15;12.88;;;3.53;;
27505;SDS011;14939;43.596;1.320;2023-04-24T03:22:41;12.20;;;3.70;;
27505;SDS011;14939;43.596;1.320;2023-04-24T03:25:07;8.60;;;3.03;;
27505;SDS011;14939;43.596;1.320;2023-04-24T03:27:34;12.63;;;3.60;;
27505;SDS011;14939;43.596;1.320;2023-04-24T03:30:00;11.98;;;3.53;;
27505;SDS011;14939;43.596;1.320;2023-04-24T03:32:26;9.75;;;3.13;;
27505;SDS011;14939;43.596;1.320;2023-04-24T03:34:51;11.80;;;3.55;;
27505;SDS011;14939;43.596;1.320;2023-04-24T03:37:17;11.65;;;3.67;;
27505;SDS011;14939;43.596;1.320;2023-04-24T03:39:43;12.73;;;3.42;;
27505;SDS011;14939;43.596;1.320;2023-04-24T03:42:08;7.22;;;3.20;;
27505;SDS011;14939;43.596;1.320;2023-04-24T03:44:35;10.43;;;3.28;;
27505;SDS011;14939;43.596;1.320;2023-04-24T03:47:01;10.32;;;3.63;;
27505;SDS011;14939;43.596;1.320;2023-04-24T03:49:27;16.65;;;3.70;;
27505;SDS011;14939;43.596;1.320;2023-04-24T03:51:52;10.50;;;3.47;;
27505;SDS011;14939;43.596;1.320;2023-04-24T03:54:18;12.13;;;3.92;;
27505;SDS011;14939;43.596;1.320;2023-04-24T03:56:44;13.10;;;3.45;;
27505;SDS011;14939;43.596;1.320;2023-04-24T03:59:10;14.98;;;3.45;;
27505;SDS011;14939;43.596;1.320;2023-04-24T04:01:36;10.52;;;3.20;;
27505;SDS011;14939;43.596;1.320;2023-04-24T04:04:05;12.80;;;3.00;;
27505;SDS011;14939;43.596;1.320;2023-04-24T04:06:32;9.68;;;3.10;;
27505;SDS011;14939;43.596;1.320;2023-04-24T04:08:58;13.50;;;3.42;;
27505;SDS011;14939;43.596;1.320;2023-04-24T04:11:25;11.88;;;3.00;;
27505;SDS011;14939;43.596;1.320;2023-04-24T04:13:51;14.98;;;3.58;;
27505;SDS011;14939;43.596;1.320;2023-04-24T04:16:16;10.73;;;3.22;;
27505;SDS011;14939;43.596;1.320;2023-04-24T04:18:44;11.57;;;3.08;;
27505;SDS011;14939;43.596;1.320;2023-04-24T04:21:10;10.85;;;3.17;;
27505;SDS011;14939;43.596;1.320;2023-04-24T04:23:36;10.98;;;3.38;;
27505;SDS011;14939;43.596;1.320;2023-04-24T04:26:02;13.38;;;3.97;;
27505;SDS011;14939;43.596;1.320;2023-04-24T04:28:29;19.70;;;5.47;;
27505;SDS011;14939;43.596;1.320;2023-04-24T04:30:56;15.77;;;5.15;;
27505;SDS011;14939;43.596;1.320;2023-04-24T04:33:23;12.73;;;4.25;;
27505;SDS011;14939;43.596;1.320;2023-04-24T04:35:49;15.60;;;3.65;;
27505;SDS011;14939;43.596;1.320;2023-04-24T04:38:17;15.98;;;3.42;;
27505;SDS011;14939;43.596;1.320;2023-04-24T04:40:43;15.57;;;3.92;;
27505;SDS011;14939;43.596;1.320;2023-04-24T04:43:09;14.40;;;3.60;;
27505;SDS011;14939;43.596;1.320;2023-04-24T04:45:36;15.25;;;3.72;;
27505;SDS011;14939;43.596;1.320;2023-04-24T04:48:03;11.40;;;4.47;;
27505;SDS011;14939;43.596;1.320;2023-04-24T04:50:29;18.77;;;4.00;;
27505;SDS011;14939;43.596;1.320;2023-04-24T04:52:55;12.98;;;4.07;;
27505;SDS011;14939;43.596;1.320;2023-04-24T04:55:21;21.33;;;4.13;;
27505;SDS011;14939;43.596;1.320;2023-04-24T04:57:47;16.98;;;3.70;;
27505;SDS011;14939;43.596;1.320;2023-04-24T05:00:13;15.10;;;3.85;;
27505;SDS011;14939;43.596;1.320;2023-04-24T05:02:39;14.35;;;3.45;;
27505;SDS011;14939;43.596;1.320;2023-04-24T05:05:05;15.10;;;3.40;;
27505;SDS011;14939;43.596;1.320;2023-04-24T05:07:32;17.17;;;3.50;;
27505;SDS011;14939;43.596;1.320;2023-04-24T05:09:58;13.07;;;4.00;;
27505;SDS011;14939;43.596;1.320;2023-04-24T05:12:23;14.60;;;3.25;;
27505;SDS011;14939;43.596;1.320;2023-04-24T05:14:49;16.15;;;3.30;;
27505;SDS011;14939;43.596;1.320;2023-04-24T05:17:15;15.13;;;3.42;;
27505;SDS011;14939;43.596;1.320;2023-04-24T05:19:41;13.70;;;3.80;;
27505;SDS011;14939;43.596;1.320;2023-04-24T05:22:07;13.95;;;3.53;;
27505;SDS011;14939;43.596;1.320;2023-04-24T05:24:34;14.75;;;3.83;;
27505;SDS011;14939;43.596;1.320;2023-04-24T05:27:01;12.73;;;3.40;;
27505;SDS011;14939;43.596;1.320;2023-04-24T05:29:28;11.38;;;3.17;;
27505;SDS011;14939;43.596;1.320;2023-04-24T05:31:56;13.75;;;3.53;;
27505;SDS011;14939;43.596;1.320;2023-04-24T05:34:21;7.63;;;2.90;;
27505;SDS011;14939;43.596;1.320;2023-04-24T05:36:47;12.18;;;3.45;;
27505;SDS011;14939;43.596;1.320;2023-04-24T05:39:13;12.48;;;3.30;;
27505;SDS011;14939;43.596;1.320;2023-04-24T05:41:40;16.00;;;4.15;;
27505;SDS011;14939;43.596;1.320;2023-04-24T05:44:05;11.45;;;3.55;;
27505;SDS011;14939;43.596;1.320;2023-04-24T05:46:31;13.85;;;3.95;;
27505;SDS011;14939;43.596;1.320;2023-04-24T05:48:57;17.38;;;3.85;;
27505;SDS011;14939;43.596;1.320;2023-04-24T05:51:23;16.08;;;5.10;;
27505;SDS011;14939;43.596;1.320;2023-04-24T05:53:49;18.83;;;5.40;;
27505;SDS011;14939;43.596;1.320;2023-04-24T05:56:15;16.17;;;5.88;;
27505;SDS011;14939;43.596;1.320;2023-04-24T05:58:41;14.82;;;5.07;;
27505;SDS011;14939;43.596;1.320;2023-04-24T06:01:06;20.08;;;5.43;;
27505;SDS011;14939;43.596;1.320;2023-04-24T06:03:32;16.70;;;5.70;;
27505;SDS011;14939;43.596;1.320;2023-04-24T06:05:58;13.65;;;4.75;;
27505;SDS011;14939;43.596;1.320;2023-04-24T06:08:23;15.40;;;4.65;;
27505;SDS011;14939;43.596;1.320;2023-04-24T06:10:49;14.82;;;4.03;;
27505;SDS011;14939;43.596;1.320;2023-04-24T06:13:15;19.10;;;3.83;;
27505;SDS011;14939;43.596;1.320;2023-04-24T06:15:41;12.77;;;3.45;;
27505;SDS011;14939;43.596;1.320;2023-04-24T06:18:07;13.10;;;3.50;;
27505;SDS011;14939;43.596;1.320;2023-04-24T06:20:35;16.10;;;3.83;;
27505;SDS011;14939;43.596;1.320;2023-04-24T06:23:01;14.55;;;3.80;;
27505;SDS011;14939;43.596;1.320;2023-04-24T06:25:26;22.63;;;4.32;;
27505;SDS011;14939;43.596;1.320;2023-04-24T06:27:53;16.63;;;3.55;;
27505;SDS011;14939;43.596;1.320;2023-04-24T06:30:20;13.95;;;3.40;;
27505;SDS011;14939;43.596;1.320;2023-04-24T06:32:46;13.57;;;3.75;;
27505;SDS011;14939;43.596;1.320;2023-04-24T06:35:12;13.98;;;4.07;;
27505;SDS011;14939;43.596;1.320;2023-04-24T06:37:41;12.77;;;3.22;;
27505;SDS011;14939;43.596;1.320;2023-04-24T06:40:07;13.43;;;3.10;;
27505;SDS011;14939;43.596;1.320;2023-04-24T06:42:33;12.40;;;3.10;;
27505;SDS011;14939;43.596;1.320;2023-04-24T06:45:00;16.35;;;3.55;;
27505;SDS011;14939;43.596;1.320;2023-04-24T06:47:26;15.40;;;3.67;;
27505;SDS011;14939;43.596;1.320;2023-04-24T06:49:52;12.27;;;2.90;;
27505;SDS011;14939;43.596;1.320;2023-04-24T06:52:18;19.30;;;3.88;;
27505;SDS011;14939;43.596;1.320;2023-04-24T06:54:44;10.25;;;3.58;;
27505;SDS011;14939;43.596;1.320;2023-04-24T06:57:09;16.40;;;3.63;;
27505;SDS011;14939;43.596;1.320;2023-04-24T06:59:35;14.57;;;3.20;;
27505;SDS011;14939;43.596;1.320;2023-04-24T07:02:01;15.30;;;3.90;;
27505;SDS011;14939;43.596;1.320;2023-04-24T07:04:27;14.90;;;3.67;;
27505;SDS011;14939;43.596;1.320;2023-04-24T07:06:54;13.85;;;3.80;;
27505;SDS011;14939;43.596;1.320;2023-04-24T07:09:22;12.85;;;3.53;;
27505;SDS011;14939;43.596;1.320;2023-04-24T07:11:50;11.93;;;4.10;;
27505;SDS011;14939;43.596;1.320;2023-04-24T07:14:16;11.23;;;3.50;;
27505;SDS011;14939;43.596;1.320;2023-04-24T07:16:42;13.77;;;4.53;;
27505;SDS011;14939;43.596;1.320;2023-04-24T07:19:08;13.63;;;5.03;;
27505;SDS011;14939;43.596;1.320;2023-04-24T07:21:34;18.05;;;4.18;;
27505;SDS011;14939;43.596;1.320;2023-04-24T07:24:00;12.48;;;3.63;;
27505;SDS011;14939;43.596;1.320;2023-04-24T07:26:28;9.98;;;3.63;;
27505;SDS011;14939;43.596;1.320;2023-04-24T07:28:55;8.70;;;2.90;;
27505;SDS011;14939;43.596;1.320;2023-04-24T07:31:21;6.15;;;2.17;;
27505;SDS011;14939;43.596;1.320;2023-04-24T07:33:46;8.10;;;2.33;;
27505;SDS011;14939;43.596;1.320;2023-04-24T07:36:13;9.88;;;2.10;;
27505;SDS011;14939;43.596;1.320;2023-04-24T07:38:43;6.10;;;1.92;;
27505;SDS011;14939;43.596;1.320;2023-04-24T07:41:12;10.77;;;2.30;;
27505;SDS011;14939;43.596;1.320;2023-04-24T07:43:39;10.60;;;2.42;;
27505;SDS011;14939;43.596;1.320;2023-04-24T07:46:05;9.43;;;2.47;;
27505;SDS011;14939;43.596;1.320;2023-04-24T07:48:31;9.38;;;2.92;;
27505;SDS011;14939;43.596;1.320;2023-04-24T07:50:57;7.75;;;3.22;;
27505;SDS011;14939;43.596;1.320;2023-04-24T07:53:23;8.05;;;2.58;;
27505;SDS011;14939;43.596;1.320;2023-04-24T07:55:48;11.15;;;2.90;;
27505;SDS011;14939;43.596;1.320;2023-04-24T07:58:14;9.52;;;3.00;;
27505;SDS011;14939;43.596;1.320;2023-04-24T08:00:40;6.78;;;2.10;;
27505;SDS011;14939;43.596;1.320;2023-04-24T08:03:06;9.90;;;2.20;;
27505;SDS011;14939;43.596;1.320;2023-04-24T08:05:31;8.60;;;2.40;;
27505;SDS011;14939;43.596;1.320;2023-04-24T08:07:58;8.98;;;1.92;;
27505;SDS011;14939;43.596;1.320;2023-04-24T08:10:23;10.57;;;2.30;;
27505;SDS011;14939;43.596;1.320;2023-04-24T08:12:50;6.65;;;2.25;;
27505;SDS011;14939;43.596;1.320;2023-04-24T08:15:15;9.10;;;2.35;;
27505;SDS011;14939;43.596;1.320;2023-04-24T08:17:41;6.28;;;1.88;;
27505;SDS011;14939;43.596;1.320;2023-04-24T08:20:07;8.88;;;1.95;;
27505;SDS011;14939;43.596;1.320;2023-04-24T08:22:38;7.85;;;1.90;;
27505;SDS011;14939;43.596;1.320;2023-04-24T08:25:05;7.90;;;2.25;;
27505;SDS011;14939;43.596;1.320;2023-04-24T08:27:31;9.15;;;2.13;;
27505;SDS011;14939;43.596;1.320;2023-04-24T08:29:57;6.90;;;1.70;;
27505;SDS011;14939;43.596;1.320;2023-04-24T08:32:24;5.72;;;1.80;;
27505;SDS011;14939;43.596;1.320;2023-04-24T08:34:53;8.70;;;1.75;;
27505;SDS011;14939;43.596;1.320;2023-04-24T08:37:21;8.40;;;1.90;;
27505;SDS011;14939;43.596;1.320;2023-04-24T08:39:47;5.18;;;1.50;;
27505;SDS011;14939;43.596;1.320;2023-04-24T08:42:13;4.93;;;1.45;;
27505;SDS011;14939;43.596;1.320;2023-04-24T08:44:40;8.02;;;1.23;;
27505;SDS011;14939;43.596;1.320;2023-04-24T08:47:07;9.23;;;1.30;;
27505;SDS011;14939;43.596;1.320;2023-04-24T08:49:33;7.18;;;1.30;;
27505;SDS011;14939;43.596;1.320;2023-04-24T08:52:01;7.10;;;1.30;;
27505;SDS011;14939;43.596;1.320;2023-04-24T08:54:28;8.77;;;2.42;;
27505;SDS011;14939;43.596;1.320;2023-04-24T08:56:54;9.50;;;1.48;;
27505;SDS011;14939;43.596;1.320;2023-04-24T08:59:25;6.50;;;1.30;;
27505;SDS011;14939;43.596;1.320;2023-04-24T09:01:52;6.53;;;1.38;;
27505;SDS011;14939;43.596;1.320;2023-04-24T09:04:20;6.80;;;1.20;;
27505;SDS011;14939;43.596;1.320;2023-04-24T09:06:47;4.90;;;1.10;;
27505;SDS011;14939;43.596;1.320;2023-04-24T09:09:15;5.20;;;1.30;;
27505;SDS011;14939;43.596;1.320;2023-04-24T09:11:43;3.50;;;0.77;;
27505;SDS011;14939;43.596;1.320;2023-04-24T09:14:09;4.50;;;1.20;;
27505;SDS011;14939;43.596;1.320;2023-04-24T09:16:36;6.55;;;1.17;;
27505;SDS011;14939;43.596;1.320;2023-04-24T09:19:01;4.57;;;0.95;;
27505;SDS011;14939;43.596;1.320;2023-04-24T09:21:31;5.05;;;1.10;;
27505;SDS011;14939;43.596;1.320;2023-04-24T09:23:59;6.82;;;1.13;;
27505;SDS011;14939;43.596;1.320;2023-04-24T09:26:29;8.07;;;1.38;;
27505;SDS011;14939;43.596;1.320;2023-04-24T09:28:56;3.65;;;1.35;;
27505;SDS011;14939;43.596;1.320;2023-04-24T09:31:22;4.45;;;1.30;;
27505;SDS011;14939;43.596;1.320;2023-04-24T09:38:59;4.30;;;0.88;;
27505;SDS011;14939;43.596;1.320;2023-04-24T09:41:27;5.30;;;1.20;;
27505;SDS011;14939;43.596;1.320;2023-04-24T09:43:56;8.40;;;1.50;;
27505;SDS011;14939;43.596;1.320;2023-04-24T09:46:30;6.75;;;1.45;;
27505;SDS011;14939;43.596;1.320;2023-04-24T09:49:05;5.30;;;1.30;;
27505;SDS011;14939;43.596;1.320;2023-04-24T09:51:35;2.92;;;0.90;;
27505;SDS011;14939;43.596;1.320;2023-04-24T09:54:03;6.88;;;1.10;;
27505;SDS011;14939;43.596;1.320;2023-04-24T09:56:33;4.53;;;1.02;;
27505;SDS011;14939;43.596;1.320;2023-04-24T09:59:05;3.60;;;1.00;;
27505;SDS011;14939;43.596;1.320;2023-04-24T10:01:31;3.63;;;1.13;;
27505;SDS011;14939;43.596;1.320;2023-04-24T10:03:58;6.07;;;1.35;;
27505;SDS011;14939;43.596;1.320;2023-04-24T10:06:34;4.25;;;0.90;;
27505;SDS011;14939;43.596;1.320;2023-04-24T10:09:01;4.15;;;0.90;;
27505;SDS011;14939;43.596;1.320;2023-04-24T10:11:28;4.30;;;1.13;;
27505;SDS011;14939;43.596;1.320;2023-04-24T10:13:55;3.50;;;0.80;;
27505;SDS011;14939;43.596;1.320;2023-04-24T10:16:22;3.47;;;1.10;;
27505;SDS011;14939;43.596;1.320;2023-04-24T10:18:48;3.70;;;1.00;;
27505;SDS011;14939;43.596;1.320;2023-04-24T10:21:14;4.75;;;0.93;;
27505;SDS011;14939;43.596;1.320;2023-04-24T10:23:41;9.23;;;1.30;;
27505;SDS011;14939;43.596;1.320;2023-04-24T10:26:10;4.32;;;0.80;;
27505;SDS011;14939;43.596;1.320;2023-04-24T10:28:42;5.45;;;1.38;;
27505;SDS011;14939;43.596;1.320;2023-04-24T10:31:10;4.72;;;1.08;;
27505;SDS011;14939;43.596;1.320;2023-04-24T10:33:38;6.15;;;1.20;;
27505;SDS011;14939;43.596;1.320;2023-04-24T10:36:08;6.53;;;1.20;;
27505;SDS011;14939;43.596;1.320;2023-04-24T10:38:35;5.43;;;1.05;;
27505;SDS011;14939;43.596;1.320;2023-04-24T10:41:07;4.60;;;0.90;;
27505;SDS011;14939;43.596;1.320;2023-04-24T10:43:34;5.00;;;1.20;;
27505;SDS011;14939;43.596;1.320;2023-04-24T10:46:01;3.50;;;1.10;;
27505;SDS011;14939;43.596;1.320;2023-04-24T10:48:29;3.72;;;1.00;;
27505;SDS011;14939;43.596;1.320;2023-04-24T10:50:55;3.65;;;1.10;;
27505;SDS011;14939;43.596;1.320;2023-04-24T10:53:22;2.55;;;1.00;;
27505;SDS011;14939;43.596;1.320;2023-04-24T10:58:38;4.78;;;1.15;;
27505;SDS011;14939;43.596;1.320;2023-04-24T11:01:22;4.93;;;1.30;;
27505;SDS011;14939;43.596;1.320;2023-04-24T11:03:56;2.45;;;1.00;;
27505;SDS011;14939;43.596;1.320;2023-04-24T11:06:29;4.35;;;1.15;;
27505;SDS011;14939;43.596;1.320;2023-04-24T11:11:33;2.40;;;0.88;;
27505;SDS011;14939;43.596;1.320;2023-04-24T11:16:26;3.08;;;1.05;;
27505;SDS011;14939;43.596;1.320;2023-04-24T11:19:02;3.92;;;1.10;;
27505;SDS011;14939;43.596;1.320;2023-04-24T11:21:45;5.10;;;1.10;;
27505;SDS011;14939;43.596;1.320;2023-04-24T11:29:46;6.03;;;1.15;;
27505;SDS011;14939;43.596;1.320;2023-04-24T11:32:28;8.90;;;1.50;;
27505;SDS011;14939;43.596;1.320;2023-04-24T11:34:57;4.72;;;1.13;;
27505;SDS011;14939;43.596;1.320;2023-04-24T11:37:33;4.90;;;1.10;;
27505;SDS011;14939;43.596;1.320;2023-04-24T11:40:01;5.65;;;1.50;;
27505;SDS011;14939;43.596;1.320;2023-04-24T11:42:29;4.45;;;1.10;;
27505;SDS011;14939;43.596;1.320;2023-04-24T11:45:02;4.82;;;1.10;;
27505;SDS011;14939;43.596;1.320;2023-04-24T11:47:43;7.13;;;1.35;;
27505;SDS011;14939;43.596;1.320;2023-04-24T11:50:11;4.15;;;1.00;;
27505;SDS011;14939;43.596;1.320;2023-04-24T11:52:42;4.95;;;1.02;;
27505;SDS011;14939;43.596;1.320;2023-04-24T11:57:45;3.17;;;1.13;;
27505;SDS011;14939;43.596;1.320;2023-04-24T12:00:16;4.47;;;1.10;;
27505;SDS011;14939;43.596;1.320;2023-04-24T12:02:43;4.83;;;1.60;;
27505;SDS011;14939;43.596;1.320;2023-04-24T12:05:12;4.30;;;1.10;;
27505;SDS011;14939;43.596;1.320;2023-04-24T12:07:49;8.30;;;1.58;;
27505;SDS011;14939;43.596;1.320;2023-04-24T12:10:19;3.03;;;1.15;;
27505;SDS011;14939;43.596;1.320;2023-04-24T12:12:49;6.13;;;1.20;;
27505;SDS011;14939;43.596;1.320;2023-04-24T12:15:17;5.95;;;1.30;;
27505;SDS011;14939;43.596;1.320;2023-04-24T12:17:44;5.47;;;1.08;;
27505;SDS011;14939;43.596;1.320;2023-04-24T12:20:10;3.10;;;1.20;;
27505;SDS011;14939;43.596;1.320;2023-04-24T12:22:53;5.53;;;1.00;;
27505;SDS011;14939;43.596;1.320;2023-04-24T12:25:20;3.65;;;1.20;;
27505;SDS011;14939;43.596;1.320;2023-04-24T12:27:52;4.32;;;1.23;;
27505;SDS011;14939;43.596;1.320;2023-04-24T12:30:28;4.32;;;1.00;;
27505;SDS011;14939;43.596;1.320;2023-04-24T12:32:56;4.78;;;1.30;;
27505;SDS011;14939;43.596;1.320;2023-04-24T12:35:24;4.35;;;1.00;;
27505;SDS011;14939;43.596;1.320;2023-04-24T12:37:51;5.63;;;1.00;;
27505;SDS011;14939;43.596;1.320;2023-04-24T12:40:18;3.08;;;1.02;;
27505;SDS011;14939;43.596;1.320;2023-04-24T12:42:45;5.25;;;1.23;;
27505;SDS011;14939;43.596;1.320;2023-04-24T12:45:11;4.20;;;0.90;;
27505;SDS011;14939;43.596;1.320;2023-04-24T12:47:38;4.88;;;1.05;;
27505;SDS011;14939;43.596;1.320;2023-04-24T12:50:05;4.88;;;1.20;;
27505;SDS011;14939;43.596;1.320;2023-04-24T12:52:32;4.72;;;1.08;;
27505;SDS011;14939;43.596;1.320;2023-04-24T12:54:59;5.72;;;1.15;;
27505;SDS011;14939;43.596;1.320;2023-04-24T12:57:26;4.05;;;1.00;;
27505;SDS011;14939;43.596;1.320;2023-04-24T12:59:59;4.43;;;1.20;;
27505;SDS011;14939;43.596;1.320;2023-04-24T13:02:25;6.13;;;1.00;;
27505;SDS011;14939;43.596;1.320;2023-04-24T13:04:52;4.50;;;1.08;;
27505;SDS011;14939;43.596;1.320;2023-04-24T13:07:18;3.20;;;0.90;;
27505;SDS011;14939;43.596;1.320;2023-04-24T13:09:45;5.55;;;1.15;;
27505;SDS011;14939;43.596;1.320;2023-04-24T13:12:11;3.97;;;1.13;;
27505;SDS011;14939;43.596;1.320;2023-04-24T13:14:38;4.15;;;1.13;;
27505;SDS011;14939;43.596;1.320;2023-04-24T13:17:04;4.03;;;1.10;;
27505;SDS011;14939;43.596;1.320;2023-04-24T13:19:34;3.80;;;1.00;;
27505;SDS011;14939;43.596;1.320;2023-04-24T13:22:04;4.78;;;1.10;;
27505;SDS011;14939;43.596;1.320;2023-04-24T13:24:30;5.22;;;1.35;;
27505;SDS011;14939;43.596;1.320;2023-04-24T13:26:57;4.07;;;1.13;;
27505;SDS011;14939;43.596;1.320;2023-04-24T13:29:23;4.57;;;1.33;;
27505;SDS011;14939;43.596;1.320;2023-04-24T13:31:52;4.53;;;1.13;;
27505;SDS011;14939;43.596;1.320;2023-04-24T13:34:20;4.97;;;1.10;;
27505;SDS011;14939;43.596;1.320;2023-04-24T13:36:46;6.22;;;1.40;;
27505;SDS011;14939;43.596;1.320;2023-04-24T13:39:12;5.05;;;1.15;;
27505;SDS011;14939;43.596;1.320;2023-04-24T13:41:38;7.80;;;1.30;;
27505;SDS011;14939;43.596;1.320;2023-04-24T13:44:05;4.57;;;1.17;;
27505;SDS011;14939;43.596;1.320;2023-04-24T13:46:31;3.25;;;1.17;;
27505;SDS011;14939;43.596;1.320;2023-04-24T13:48:56;6.57;;;1.23;;
27505;SDS011;14939;43.596;1.320;2023-04-24T13:51:23;5.00;;;1.15;;
27505;SDS011;14939;43.596;1.320;2023-04-24T13:53:51;3.90;;;1.10;;
27505;SDS011;14939;43.596;1.320;2023-04-24T13:56:17;5.28;;;1.10;;
27505;SDS011;14939;43.596;1.320;2023-04-24T13:58:43;4.75;;;0.90;;
27505;SDS011;14939;43.596;1.320;2023-04-24T14:01:09;4.68;;;1.35;;
27505;SDS011;14939;43.596;1.320;2023-04-24T14:03:35;4.03;;;1.15;;
27505;SDS011;14939;43.596;1.320;2023-04-24T14:06:02;4.50;;;1.20;;
27505;SDS011;14939;43.596;1.320;2023-04-24T14:08:28;3.38;;;1.30;;
27505;SDS011;14939;43.596;1.320;2023-04-24T14:10:53;3.80;;;1.33;;
27505;SDS011;14939;43.596;1.320;2023-04-24T14:13:19;3.40;;;1.17;;
27505;SDS011;14939;43.596;1.320;2023-04-24T14:15:45;5.10;;;1.20;;
27505;SDS011;14939;43.596;1.320;2023-04-24T14:18:11;4.90;;;1.25;;
27505;SDS011;14939;43.596;1.320;2023-04-24T14:20:37;4.85;;;1.20;;
27505;SDS011;14939;43.596;1.320;2023-04-24T14:23:03;5.45;;;1.10;;
27505;SDS011;14939;43.596;1.320;2023-04-24T14:25:29;4.53;;;0.95;;
27505;SDS011;14939;43.596;1.320;2023-04-24T14:27:55;5.45;;;1.30;;
27505;SDS011;14939;43.596;1.320;2023-04-24T14:30:21;4.22;;;1.20;;
27505;SDS011;14939;43.596;1.320;2023-04-24T14:32:46;5.55;;;1.45;;
27505;SDS011;14939;43.596;1.320;2023-04-24T14:35:12;4.85;;;1.15;;
27505;SDS011;14939;43.596;1.320;2023-04-24T14:37:39;4.97;;;1.30;;
27505;SDS011;14939;43.596;1.320;2023-04-24T14:40:08;5.93;;;1.55;;
27505;SDS011;14939;43.596;1.320;2023-04-24T14:42:34;5.47;;;1.23;;
27505;SDS011;14939;43.596;1.320;2023-04-24T14:45:00;2.88;;;1.10;;
27505;SDS011;14939;43.596;1.320;2023-04-24T14:47:27;4.90;;;1.75;;
27505;SDS011;14939;43.596;1.320;2023-04-24T14:49:53;4.30;;;1.13;;
27505;SDS011;14939;43.596;1.320;2023-04-24T14:52:22;6.47;;;1.50;;
27505;SDS011;14939;43.596;1.320;2023-04-24T14:54:47;6.00;;;1.23;;
27505;SDS011;14939;43.596;1.320;2023-04-24T14:57:13;4.68;;;1.42;;
27505;SDS011;14939;43.596;1.320;2023-04-24T14:59:39;3.88;;;1.52;;